Terminal Aerodrome Forecast
Issued by NWS

Current Version | Previous Version | Text Only | Print | Product List | Glossary On
Versions: 1 2 3 4 5 6 7 8 9 10 11 12 13 14
000
FTUS44 KLZK 301100
TAFHOT
TAF
KHOT 301127Z 3012/0112 26003KT P6SM BKN060
     FM301500 27007KT P6SM SCT060
     FM010100 26003KT P6SM SCT250=

USA.gov is the U.S. government's official web portal to all federal, state and local government web resources and services.